Etusivu
METAR-TAF:

METAR-TAF

Lentoasemat :

Bangkok, Thaimaa

Don Muangin kansainvälinen lentoasema

Leveyspiiri: 13-54-45N, Pituuspiiri: 100-36-24E, korkeus merenpinnasta: 4 m

Tämänhetkinen sää

Tämä raportti tehtiin 20 minuuttia sitten, kello 01.30 UTC
Tuuli 9 kn pohjoisesta
Lämpötila 25°C
Kosteus 69%
Ilmanpaine 1015 hPa
Näkyvyys 10 km tai enemmän
Muutamia pilviä 3000 ft:n korkeudessa
Hajanaisia pilviä 10000 ft:n korkeudessa

METAR: VTBD 250130Z 01009KT 9999 FEW030 SCT100 25/19 Q1015 NOSIG

Aika: 08:50 (01:50 UTC)

Sääennuste

Tämä raportti tehtiin 2 tuntia ja 50 minuuttia sitten, kello 23.00 UTC
Ennuste voimassa 25. päivästä klo 00 UTC - 26. päivään klo 06 UTC
Tuuli 8 kn pohjoisesta/koillisesta
Näkyvyys 10 km tai enemmän
Muutamia pilviä 3500 ft:n korkeudessa

TAF: VTBD 242300Z 2500/2606 03008KT 9999 FEW035

Säähavainnot ja -ennusteet yli 4000 lentoasemalta (METAR- ja TAF-raportit).

Käytössä olevat sääasemat on merkitty karttaan keltaisilla ja punaisilla pisteillä.

Aseta hiiri pisteen päälle nähdäksesi sääaseman nimen.

Klikkaa sitten nähdäksesi säähavainnot ja -ennusteet.

Kartan vaihtaminen: klikkaa mustalla rastilla varustettuja vihreitä pisteitä, niin voit zoomata sisään; viivalla varustettua vihreää pistettä, niin voit zoomata ulos tai vihreitä nuolia, niin pääset viereisille kartoille.


METAR-TAF: